createdAt,value
2023-04-01T00:01:04.774Z,95867.41
2023-04-01T00:03:34.456Z,95861.33
2023-04-01T00:06:03.075Z,95852.96
2023-04-01T00:08:31.559Z,95847.89
2023-04-01T00:10:59.645Z,95844.58
2023-04-01T00:13:27.904Z,95841.08
2023-04-01T00:15:57.290Z,95836.30
2023-04-01T00:18:25.796Z,95823.65
2023-04-01T00:20:54.415Z,95825.86
2023-04-01T00:23:22.257Z,95817.56
2023-04-01T00:25:50.655Z,95814.27
2023-04-01T00:28:19.152Z,95810.62
2023-04-01T00:30:47.327Z,95807.77
2023-04-01T00:33:16.137Z,95808.70
2023-04-01T00:35:44.096Z,95799.86
2023-04-01T00:38:12.469Z,95795.66
2023-04-01T00:40:42.273Z,95797.10
2023-04-01T00:43:15.077Z,95793.53
2023-04-01T00:45:44.171Z,95788.77
2023-04-01T00:48:15.629Z,95787.06
2023-04-01T00:50:45.424Z,95781.45
2023-04-01T00:53:13.726Z,95780.75
2023-04-01T00:55:44.983Z,95782.09
2023-04-01T00:58:16.949Z,95778.13
2023-04-01T01:00:46.592Z,95773.71
2023-04-01T01:03:14.586Z,95772.48
2023-04-01T01:05:51.956Z,95771.80
2023-04-01T01:08:46.390Z,95771.40
2023-04-01T01:11:15.506Z,95767.67
2023-04-01T01:13:46.642Z,95768.44
2023-04-01T01:16:19.977Z,95761.85
2023-04-01T01:19:08.132Z,95758.23
2023-04-01T01:21:44.947Z,95762.75
2023-04-01T01:24:12.822Z,95764.52
2023-04-01T01:27:01.883Z,95768.96
2023-04-01T01:29:43.678Z,95766.00
2023-04-01T01:32:30.641Z,95771.06
2023-04-01T01:35:17.165Z,95772.02
2023-04-01T01:37:46.883Z,95781.54
2023-04-01T01:40:17.120Z,95777.56
2023-04-01T01:42:48.461Z,95777.79
2023-04-01T01:45:19.205Z,95777.98
2023-04-01T01:47:48.743Z,95771.58
2023-04-01T01:50:17.229Z,95768.52
2023-04-01T01:52:45.018Z,95763.27
2023-04-01T01:55:25.222Z,95762.95
2023-04-01T01:57:53.427Z,95762.93
2023-04-01T02:00:22.283Z,95761.00
2023-04-01T02:02:51.486Z,95765.17
2023-04-01T02:05:24.376Z,95764.19
2023-04-01T02:07:58.894Z,95765.00
2023-04-01T02:10:27.899Z,95762.42
2023-04-01T02:12:59.649Z,95768.94
2023-04-01T02:15:31.937Z,95766.14
2023-04-01T02:18:00.677Z,95755.61
2023-04-01T02:20:30.533Z,95753.09
2023-04-01T02:23:00.824Z,95747.77
2023-04-01T02:25:30.002Z,95737.40
2023-04-01T02:27:59.370Z,95742.49
2023-04-01T02:30:28.681Z,95747.05
2023-04-01T02:32:58.171Z,95745.52
2023-04-01T02:35:27.070Z,95742.30
2023-04-01T02:37:56.023Z,95739.48
2023-04-01T02:40:24.004Z,95736.23
2023-04-01T02:42:53.032Z,95727.42
2023-04-01T02:45:21.136Z,95724.61
2023-04-01T02:47:49.003Z,95717.65
2023-04-01T02:50:17.668Z,95714.65
2023-04-01T02:52:45.665Z,95707.94
2023-04-01T02:55:14.769Z,95715.27
2023-04-01T02:57:42.933Z,95715.83
2023-04-01T03:00:12.306Z,95715.27
2023-04-01T03:02:40.712Z,95715.81
2023-04-01T03:05:09.120Z,95713.32
2023-04-01T03:07:36.973Z,95714.52
2023-04-01T03:10:05.372Z,95716.02
2023-04-01T03:12:33.354Z,95714.86
2023-04-01T03:15:10.775Z,95707.00
2023-04-01T03:17:41.200Z,95704.90
2023-04-01T03:20:09.756Z,95703.73
2023-04-01T03:22:39.265Z,95706.85
2023-04-01T03:25:09.082Z,95709.42
2023-04-01T03:27:37.152Z,95701.68
2023-04-01T03:30:06.842Z,95702.89
2023-04-01T03:32:37.151Z,95711.70
2023-04-01T03:35:05.981Z,95713.33
2023-04-01T03:37:34.063Z,95717.16
2023-04-01T03:40:02.351Z,95719.08
2023-04-01T03:42:32.656Z,95725.78
2023-04-01T03:45:00.646Z,95728.66
2023-04-01T03:47:28.651Z,95730.71
2023-04-01T03:49:57.213Z,95730.75
2023-04-01T03:52:25.700Z,95729.05
2023-04-01T03:54:53.767Z,95726.17
2023-04-01T03:57:21.906Z,95720.00
2023-04-01T03:59:50.332Z,95721.39
2023-04-01T04:02:18.662Z,95718.89
2023-04-01T04:04:48.730Z,95719.10
2023-04-01T04:07:16.814Z,95717.35
2023-04-01T04:10:06.746Z,95717.05
2023-04-01T04:12:34.636Z,95715.84
2023-04-01T04:15:02.848Z,95714.38
2023-04-01T04:17:30.751Z,95711.52
2023-04-01T04:19:59.004Z,95710.15
2023-04-01T04:22:27.074Z,95711.48
2023-04-01T04:24:55.873Z,95720.52
2023-04-01T04:27:23.845Z,95722.36
2023-04-01T04:30:01.848Z,95726.86
2023-04-01T04:32:31.417Z,95721.89
2023-04-01T04:34:59.632Z,95719.02
2023-04-01T04:37:27.613Z,95710.43
2023-04-01T04:39:55.695Z,95699.45
2023-04-01T04:42:23.757Z,95698.20
2023-04-01T04:44:56.538Z,95699.95
2023-04-01T04:47:25.078Z,95702.37
2023-04-01T04:49:53.112Z,95706.67
2023-04-01T04:52:21.289Z,95703.54
2023-04-01T04:54:49.355Z,95702.05
2023-04-01T04:57:17.454Z,95700.42
2023-04-01T04:59:51.455Z,95697.18
2023-04-01T05:02:42.338Z,95687.05
2023-04-01T05:05:11.444Z,95682.50
2023-04-01T05:07:39.649Z,95686.63
2023-04-01T05:10:07.905Z,95685.25
2023-04-01T05:12:38.640Z,95683.52
2023-04-01T05:15:09.292Z,95682.80
2023-04-01T05:17:37.877Z,95691.63
2023-04-01T05:20:09.533Z,95690.91
2023-04-01T05:22:37.602Z,95686.66
2023-04-01T05:25:06.402Z,95679.69
2023-04-01T05:27:34.472Z,95677.23
2023-04-01T05:30:02.942Z,95680.80
2023-04-01T05:32:48.762Z,95680.89
2023-04-01T05:35:16.815Z,95676.61
2023-04-01T05:37:44.788Z,95672.79
2023-04-01T05:40:12.849Z,95674.27
2023-04-01T05:42:40.855Z,95669.86
2023-04-01T05:45:10.111Z,95662.55
2023-04-01T05:48:10.466Z,95663.29
2023-04-01T05:50:41.192Z,95667.55
2023-04-01T05:53:09.166Z,95670.38
2023-04-01T05:55:37.517Z,95673.38
2023-04-01T05:58:05.839Z,95672.73
2023-04-01T06:00:34.122Z,95673.84
2023-04-01T06:03:02.474Z,95670.63
2023-04-01T06:05:32.287Z,95668.16
2023-04-01T06:08:02.469Z,95666.71
2023-04-01T06:10:45.899Z,95674.80
2023-04-01T06:13:32.775Z,95677.60
2023-04-01T06:16:00.967Z,95678.38
2023-04-01T06:18:48.159Z,95673.70
2023-04-01T06:21:38.139Z,95663.23
2023-04-01T06:24:42.938Z,95661.03
2023-04-01T06:27:23.309Z,95664.41
2023-04-01T06:29:52.205Z,95664.80
2023-04-01T06:32:26.322Z,95659.98
2023-04-01T06:34:57.570Z,95655.67
2023-04-01T06:37:41.817Z,95651.49
2023-04-01T06:40:09.789Z,95653.95
2023-04-01T06:42:49.453Z,95659.24
2023-04-01T06:45:55.060Z,95666.25
2023-04-01T06:49:00.798Z,95669.59
2023-04-01T06:52:17.385Z,95669.15
2023-04-01T06:55:10.631Z,95673.73
2023-04-01T06:58:04.805Z,95673.30
2023-04-01T07:00:36.073Z,95671.63
2023-04-01T07:03:07.742Z,95667.23
2023-04-01T07:05:36.915Z,95671.98
2023-04-01T07:08:07.963Z,95679.02
2023-04-01T07:10:43.935Z,95678.28
2023-04-01T07:13:53.497Z,95676.21
2023-04-01T07:16:27.057Z,95677.05
2023-04-01T07:19:04.520Z,95677.05
2023-04-01T07:21:54.183Z,95674.94
2023-04-01T07:24:39.044Z,95678.31
2023-04-01T07:27:13.770Z,95678.30
2023-04-01T07:29:43.096Z,95682.29
2023-04-01T07:32:28.201Z,95682.29
2023-04-01T07:35:16.722Z,95680.02
2023-04-01T07:38:01.035Z,95681.41
2023-04-01T07:40:32.078Z,95682.02
2023-04-01T07:43:19.193Z,95685.41
2023-04-01T07:46:00.617Z,95685.91
2023-04-01T07:48:36.839Z,95688.56
2023-04-01T07:51:16.374Z,95688.89
2023-04-01T07:53:50.887Z,95686.23
2023-04-01T07:56:40.258Z,95690.41
2023-04-01T07:59:29.632Z,95691.83
2023-04-01T08:02:13.208Z,95691.09
2023-04-01T08:04:47.728Z,95691.19
2023-04-01T08:07:25.575Z,95685.61
2023-04-01T08:10:16.265Z,95685.69
2023-04-01T08:13:24.140Z,95676.67
2023-04-01T08:16:25.684Z,95677.51
2023-04-01T08:19:02.264Z,95675.38
2023-04-01T08:21:42.918Z,95670.94
2023-04-01T08:24:22.165Z,95678.98
2023-04-01T08:26:54.420Z,95679.18
2023-04-01T08:29:26.178Z,95674.96
2023-04-01T08:31:58.248Z,95672.19
2023-04-01T08:34:35.435Z,95670.62
2023-04-01T08:37:06.685Z,95669.40
2023-04-01T08:39:34.856Z,95668.15
2023-04-01T08:42:16.343Z,95665.84
2023-04-01T08:45:14.373Z,95659.42
2023-04-01T08:47:51.261Z,95651.19
2023-04-01T08:50:22.321Z,95643.13
2023-04-01T08:53:22.978Z,95647.38
2023-04-01T08:56:03.605Z,95654.55
2023-04-01T08:58:51.028Z,95657.48
2023-04-01T09:01:42.843Z,95648.67
2023-04-01T09:04:34.845Z,95651.58
2023-04-01T09:07:12.849Z,95651.20
2023-04-01T09:09:52.325Z,95645.59
2023-04-01T09:12:22.744Z,95653.71
2023-04-01T09:14:55.092Z,95650.08
2023-04-01T09:17:38.757Z,95645.62
2023-04-01T09:20:21.940Z,95644.79
2023-04-01T09:23:08.418Z,95640.81
2023-04-01T09:25:59.574Z,95628.63
2023-04-01T09:29:03.341Z,95621.48
2023-04-01T09:32:07.049Z,95620.08
2023-04-01T09:35:11.765Z,95622.77
2023-04-01T09:37:52.847Z,95610.67
2023-04-01T09:40:59.203Z,95602.14
2023-04-01T09:43:57.262Z,95601.64
2023-04-01T09:46:54.708Z,95594.68
2023-04-01T09:49:22.659Z,95599.55
2023-04-01T09:52:11.203Z,95594.81
2023-04-01T09:54:53.007Z,95582.27
2023-04-01T09:57:40.210Z,95574.35
2023-04-01T10:00:39.919Z,95580.62
2023-04-01T10:03:28.380Z,95576.17
2023-04-01T10:06:21.585Z,95584.24
2023-04-01T10:09:09.229Z,95593.71
2023-04-01T10:11:56.426Z,95593.04
2023-04-01T10:14:43.541Z,95590.39
2023-04-01T10:17:14.513Z,95588.88
2023-04-01T10:19:51.870Z,95590.73
2023-04-01T10:22:30.695Z,95593.52
2023-04-01T10:24:58.873Z,95596.66
2023-04-01T10:27:33.216Z,95597.98
2023-04-01T10:30:44.353Z,95603.74
2023-04-01T10:33:17.641Z,95605.34
2023-04-01T10:35:52.385Z,95598.81
2023-04-01T10:38:39.185Z,95595.86
2023-04-01T10:41:07.244Z,95592.20
2023-04-01T10:44:33.248Z,95588.39
2023-04-01T10:47:10.103Z,95593.20
2023-04-01T10:49:39.248Z,95594.31
2023-04-01T10:52:07.209Z,95590.69
2023-04-01T10:54:59.534Z,95589.48
2023-04-01T10:57:51.350Z,95589.67
2023-04-01T11:01:10.506Z,95590.67
2023-04-01T11:04:06.809Z,95588.91
2023-04-01T11:06:40.804Z,95586.27
2023-04-01T11:09:27.564Z,95584.04
2023-04-01T11:11:58.446Z,95585.55
2023-04-01T11:14:45.985Z,95583.49
2023-04-01T11:17:23.610Z,95581.17
2023-04-01T11:20:11.177Z,95596.70
2023-04-01T11:22:42.145Z,95594.34
2023-04-01T11:25:29.528Z,95595.29
2023-04-01T11:28:48.813Z,95597.79
2023-04-01T11:31:17.059Z,95595.39
2023-04-01T11:33:46.290Z,95592.30
2023-04-01T11:36:21.184Z,95594.35
2023-04-01T11:39:08.429Z,95594.25
2023-04-01T11:42:13.451Z,95590.02
2023-04-01T11:45:25.031Z,95593.70
2023-04-01T11:47:57.757Z,95592.84
2023-04-01T11:50:39.382Z,95595.08
2023-04-01T11:53:29.667Z,95592.16
2023-04-01T11:56:09.528Z,95592.25
2023-04-01T11:58:46.809Z,95588.86
2023-04-01T12:01:34.418Z,95587.55
2023-04-01T12:04:20.973Z,95590.28
2023-04-01T12:06:48.905Z,95592.30
2023-04-01T12:09:32.660Z,95587.75
2023-04-01T12:12:24.054Z,95583.11
2023-04-01T12:14:54.990Z,95585.88
2023-04-01T12:17:45.265Z,95586.87
2023-04-01T12:20:13.821Z,95584.58
2023-04-01T12:22:41.831Z,95585.80
2023-04-01T12:25:23.924Z,95584.17
2023-04-01T12:27:52.382Z,95586.35
2023-04-01T12:30:34.095Z,95585.34
2023-04-01T12:33:17.419Z,95586.45
2023-04-01T12:35:48.520Z,95590.23
2023-04-01T12:38:25.344Z,95589.04
2023-04-01T12:41:08.664Z,95584.35
2023-04-01T12:43:46.150Z,95585.50
2023-04-01T12:46:17.268Z,95585.32
2023-04-01T12:48:47.990Z,95582.86
2023-04-01T12:51:16.112Z,95586.66
2023-04-01T12:53:47.371Z,95586.56
2023-04-01T12:56:28.949Z,95586.08
2023-04-01T12:58:56.923Z,95589.42
2023-04-01T13:01:43.029Z,95589.67
2023-04-01T13:04:26.745Z,95582.95
2023-04-01T13:06:57.775Z,95578.71
2023-04-01T13:09:25.715Z,95580.14
2023-04-01T13:12:03.261Z,95579.56
2023-04-01T13:14:50.166Z,95580.69
2023-04-01T13:17:22.783Z,95579.38
2023-04-01T13:20:04.271Z,95581.42
2023-04-01T13:22:53.166Z,95580.37
2023-04-01T13:26:12.990Z,95578.93
2023-04-01T13:28:41.415Z,95576.45
2023-04-01T13:31:09.207Z,95576.58
2023-04-01T13:33:46.168Z,95578.31
2023-04-01T13:36:20.316Z,95578.56
2023-04-01T13:38:48.264Z,95580.98
2023-04-01T13:41:36.485Z,95578.13
2023-04-01T13:44:10.605Z,95577.27
2023-04-01T13:46:41.831Z,95577.71
2023-04-01T13:49:10.025Z,95573.53
2023-04-01T13:51:47.525Z,95571.60
2023-04-01T13:54:31.570Z,95576.65
2023-04-01T13:57:08.765Z,95572.99
2023-04-01T13:59:55.693Z,95572.41
2023-04-01T14:02:42.630Z,95570.66
2023-04-01T14:05:10.945Z,95567.07
2023-04-01T14:07:41.876Z,95565.80
2023-04-01T14:10:10.572Z,95564.89
2023-04-01T14:12:41.721Z,95570.25
2023-04-01T14:15:23.343Z,95573.34
2023-04-01T14:17:56.440Z,95575.69
2023-04-01T14:20:31.521Z,95571.92
2023-04-01T14:22:59.403Z,95573.41
2023-04-01T14:25:42.765Z,95572.22
2023-04-01T14:28:11.423Z,95572.76
2023-04-01T14:30:48.082Z,95574.34
2023-04-01T14:33:17.786Z,95569.84
2023-04-01T14:35:49.081Z,95567.23
2023-04-01T14:38:27.571Z,95566.64
2023-04-01T14:41:07.654Z,95566.53
2023-04-01T14:43:47.975Z,95565.52
2023-04-01T14:46:19.149Z,95566.73
2023-04-01T14:49:15.549Z,95565.08
2023-04-01T14:51:43.617Z,95563.37
2023-04-01T14:54:11.646Z,95560.59
2023-04-01T14:56:43.718Z,95566.10
2023-04-01T14:59:15.222Z,95561.02
2023-04-01T15:01:49.120Z,95565.61
2023-04-01T15:04:27.790Z,95565.36
2023-04-01T15:07:07.083Z,95565.06
2023-04-01T15:09:47.449Z,95562.52
2023-04-01T15:12:28.098Z,95562.41
2023-04-01T15:15:01.922Z,95566.13
2023-04-01T15:17:30.059Z,95564.59
2023-04-01T15:20:16.796Z,95563.23
2023-04-01T15:22:44.790Z,95566.61
2023-04-01T15:25:33.320Z,95567.52
2023-04-01T15:28:07.223Z,95571.01
2023-04-01T15:30:52.017Z,95574.05
2023-04-01T15:33:40.209Z,95588.25
2023-04-01T15:36:08.122Z,95594.05
2023-04-01T15:38:45.069Z,95605.84
2023-04-01T15:41:32.065Z,95607.77
2023-04-01T15:44:00.166Z,95614.35
2023-04-01T15:46:56.468Z,95609.27
2023-04-01T15:49:34.171Z,95616.41
2023-04-01T15:52:17.393Z,95615.24
2023-04-01T15:54:56.307Z,95610.31
2023-04-01T15:57:24.338Z,95606.65
2023-04-01T16:00:07.433Z,95603.93
2023-04-01T16:02:59.282Z,95618.34
2023-04-01T16:05:45.923Z,95628.02
2023-04-01T16:08:29.083Z,95636.02
2023-04-01T16:11:11.038Z,95637.30
2023-04-01T16:13:48.532Z,95643.33
2023-04-01T16:16:22.887Z,95645.98
2023-04-01T16:18:54.108Z,95646.27
2023-04-01T16:21:22.071Z,95649.34
2023-04-01T16:23:50.044Z,95647.31
2023-04-01T16:26:17.908Z,95648.16
2023-04-01T16:28:45.930Z,95654.11
2023-04-01T16:31:26.598Z,95651.89
2023-04-01T16:34:00.049Z,95651.48
2023-04-01T16:36:42.457Z,95653.75
2023-04-01T16:39:33.967Z,95655.36
2023-04-01T16:42:25.575Z,95659.02
2023-04-01T16:45:09.727Z,95658.48
2023-04-01T16:47:41.520Z,95660.05
2023-04-01T16:50:24.421Z,95661.52
2023-04-01T16:53:03.839Z,95663.98
2023-04-01T16:55:37.753Z,95673.20
2023-04-01T16:58:08.694Z,95674.20
2023-04-01T17:00:42.404Z,95672.61
2023-04-01T17:03:13.638Z,95672.79
2023-04-01T17:05:47.654Z,95680.39
2023-04-01T17:08:27.901Z,95685.26
2023-04-01T17:11:02.548Z,95685.91
2023-04-01T17:13:37.365Z,95685.43
2023-04-01T17:16:08.566Z,95686.27
2023-04-01T17:18:42.527Z,95685.52
2023-04-01T17:21:18.279Z,95685.22
2023-04-01T17:23:52.098Z,95690.70
2023-04-01T17:26:26.241Z,95686.80
2023-04-01T17:29:13.106Z,95687.70
2023-04-01T17:31:47.802Z,95691.21
2023-04-01T17:34:31.871Z,95698.08
2023-04-01T17:37:18.778Z,95701.21
2023-04-01T17:39:56.074Z,95704.39
2023-04-01T17:42:32.341Z,95703.26
2023-04-01T17:45:00.399Z,95705.38
2023-04-01T17:48:01.537Z,95705.02
2023-04-01T17:50:55.799Z,95705.34
2023-04-01T17:53:39.117Z,95706.95
2023-04-01T17:56:16.721Z,95711.56
2023-04-01T17:58:53.093Z,95713.52
2023-04-01T18:01:33.363Z,95715.52
2023-04-01T18:04:04.144Z,95719.42
2023-04-01T18:06:33.581Z,95724.35
2023-04-01T18:09:06.471Z,95723.81
2023-04-01T18:11:36.120Z,95728.42
2023-04-01T18:14:24.433Z,95730.95
2023-04-01T18:17:28.331Z,95732.49
2023-04-01T18:20:02.242Z,95733.46
2023-04-01T18:22:44.939Z,95734.42
2023-04-01T18:25:22.715Z,95737.77
2023-04-01T18:27:53.154Z,95738.08
2023-04-01T18:30:30.461Z,95738.53
2023-04-01T18:33:02.965Z,95741.89
2023-04-01T18:35:46.297Z,95743.91
2023-04-01T18:38:15.056Z,95742.34
2023-04-01T18:40:42.944Z,95744.02
2023-04-01T18:43:19.574Z,95750.41
2023-04-01T18:45:55.308Z,95750.36
2023-04-01T18:48:43.670Z,95751.18
2023-04-01T18:51:25.479Z,95751.73
2023-04-01T18:54:06.752Z,95758.16
2023-04-01T18:56:46.111Z,95759.98
2023-04-01T18:59:14.172Z,95762.53
2023-04-01T19:02:08.960Z,95765.41
2023-04-01T19:04:42.144Z,95764.08
2023-04-01T19:07:43.395Z,95765.21
2023-04-01T19:10:13.991Z,95765.00
2023-04-01T19:12:41.895Z,95768.36
2023-04-01T19:15:39.758Z,95763.35
2023-04-01T19:18:10.853Z,95762.30
2023-04-01T19:20:44.019Z,95766.66
2023-04-01T19:23:18.394Z,95768.14
2023-04-01T19:25:48.512Z,95766.55
2023-04-01T19:28:35.417Z,95768.35
2023-04-01T19:31:03.414Z,95770.84
2023-04-01T19:33:37.307Z,95775.56
2023-04-01T19:36:05.224Z,95773.97
2023-04-01T19:38:52.078Z,95776.77
2023-04-01T19:41:20.062Z,95780.98
2023-04-01T19:44:07.210Z,95777.85
2023-04-01T19:46:43.802Z,95780.02
2023-04-01T19:49:26.259Z,95777.15
2023-04-01T19:52:05.093Z,95780.17
2023-04-01T19:54:51.872Z,95776.73
2023-04-01T19:57:23.155Z,95772.50
2023-04-01T19:59:53.346Z,95772.85
2023-04-01T20:02:27.307Z,95774.77
2023-04-01T20:05:00.955Z,95777.61
2023-04-01T20:07:28.833Z,95779.83
2023-04-01T20:10:08.369Z,95782.73
2023-04-01T20:12:40.942Z,95784.48
2023-04-01T20:15:27.974Z,95784.25
2023-04-01T20:17:57.907Z,95778.09
2023-04-01T20:20:27.807Z,95783.47
2023-04-01T20:23:14.496Z,95788.92
2023-04-01T20:25:50.659Z,95785.27
2023-04-01T20:28:18.732Z,95787.81
2023-04-01T20:30:52.951Z,95789.34
2023-04-01T20:33:27.562Z,95789.41
2023-04-01T20:35:58.752Z,95787.11
2023-04-01T20:38:39.084Z,95789.45
2023-04-01T20:41:10.120Z,95789.59
2023-04-01T20:43:52.530Z,95790.94
2023-04-01T20:46:34.322Z,95790.92
2023-04-01T20:49:17.845Z,95792.92
2023-04-01T20:51:55.657Z,95789.34
2023-04-01T20:54:26.590Z,95791.55
2023-04-01T20:56:57.026Z,95793.42
2023-04-01T20:59:34.416Z,95797.45
2023-04-01T21:02:25.821Z,95799.77
2023-04-01T21:05:13.023Z,95797.17
2023-04-01T21:08:00.130Z,95801.02
2023-04-01T21:10:37.317Z,95800.55
2023-04-01T21:13:05.290Z,95795.23
2023-04-01T21:15:51.837Z,95798.95
2023-04-01T21:18:26.310Z,95800.53
2023-04-01T21:20:54.402Z,95798.87
2023-04-01T21:23:31.147Z,95803.88
2023-04-01T21:26:14.083Z,95802.71
2023-04-01T21:28:42.154Z,95810.77
2023-04-01T21:31:22.387Z,95813.03
2023-04-01T21:34:02.742Z,95817.71
2023-04-01T21:36:49.395Z,95818.39
2023-04-01T21:39:34.434Z,95815.65
2023-04-01T21:42:14.703Z,95815.23
2023-04-01T21:44:42.678Z,95817.39
2023-04-01T21:47:14.054Z,95816.17
2023-04-01T21:49:47.829Z,95823.58
2023-04-01T21:52:34.723Z,95819.89
2023-04-01T21:55:21.760Z,95820.56
2023-04-01T21:58:12.411Z,95822.89
2023-04-01T22:00:59.431Z,95822.79
2023-04-01T22:03:30.715Z,95819.36
2023-04-01T22:06:06.023Z,95820.61
2023-04-01T22:08:53.140Z,95820.58
2023-04-01T22:11:33.660Z,95816.67
2023-04-01T22:14:21.425Z,95818.09
2023-04-01T22:16:51.943Z,95819.43
2023-04-01T22:19:26.169Z,95822.49
2023-04-01T22:22:02.724Z,95823.48
2023-04-01T22:24:36.138Z,95822.64
2023-04-01T22:27:04.023Z,95825.45
2023-04-01T22:29:42.947Z,95827.98
2023-04-01T22:32:17.549Z,95824.85
2023-04-01T22:34:56.892Z,95825.46
2023-04-01T22:37:31.320Z,95830.57
2023-04-01T22:40:18.309Z,95832.09
2023-04-01T22:42:48.135Z,95833.29
2023-04-01T22:45:28.454Z,95837.03
2023-04-01T22:48:14.962Z,95838.75
2023-04-01T22:50:51.146Z,95838.94
2023-04-01T22:53:26.194Z,95841.68
2023-04-01T22:55:57.430Z,95840.98
2023-04-01T22:58:34.118Z,95842.63
2023-04-01T23:01:22.896Z,95850.00
2023-04-01T23:03:52.669Z,95848.95
2023-04-01T23:06:29.051Z,95850.21
2023-04-01T23:09:02.343Z,95850.92
2023-04-01T23:11:42.595Z,95851.10
2023-04-01T23:14:11.799Z,95852.30
2023-04-01T23:16:44.388Z,95851.02
2023-04-01T23:19:12.341Z,95850.69
2023-04-01T23:21:51.769Z,95854.90
2023-04-01T23:24:32.133Z,95853.88
2023-04-01T23:27:04.419Z,95858.51
2023-04-01T23:29:36.586Z,95860.75
2023-04-01T23:32:05.386Z,95861.41
2023-04-01T23:34:36.753Z,95863.81
2023-04-01T23:37:17.167Z,95862.73
2023-04-01T23:39:47.094Z,95866.84
2023-04-01T23:42:20.720Z,95868.25
2023-04-01T23:44:50.721Z,95867.91
2023-04-01T23:47:32.108Z,95867.52
2023-04-01T23:50:19.810Z,95871.98
2023-04-01T23:52:49.537Z,95871.08
2023-04-01T23:55:26.233Z,95874.41
2023-04-01T23:58:03.496Z,95871.09
